Time;durP1;ratioP1;P1;durP2;ratioP2;P2;SDS_P1;SDS_P2;PMS_P1;PMS_P2;Temp;Humidity;BMP_temperature;BMP_pressure;BME280_temperature;BME280_humidity;BME280_pressure;Samples;Min_cycle;Max_cycle;Signal;HPM_P1;HPM_P2
2021/09/23 00:01:36;;;;;;;;;;;16.30;99.90;;;;;;5066923;28;19939;-66
2021/09/23 00:04:16;;;;;;;;;;;16.30;99.90;;;;;;5073663;28;20199;-66
2021/09/23 00:06:42;;;;;;;;;;;16.30;99.90;;;;;;5071192;28;19919;-67
2021/09/23 00:09:08;;;;;;;;;;;16.30;99.90;;;;;;5076125;28;20491;-67
2021/09/23 00:11:33;;;;;;;;;;;16.30;99.90;;;;;;5072898;28;19912;-66
2021/09/23 00:14:00;;;;;;;;;;;16.30;99.90;;;;;;5071723;28;19912;-65
2021/09/23 00:16:25;;;;;;;;;;;16.30;99.90;;;;;;5072303;28;19977;-66
2021/09/23 00:18:51;;;;;;;;;;;16.30;99.90;;;;;;5073599;28;19978;-67
2021/09/23 00:21:18;;;;;;;;;;;16.30;99.90;;;;;;5072778;28;19912;-67
2021/09/23 00:23:45;;;;;;;;;;;16.30;99.90;;;;;;5074998;28;19955;-67
2021/09/23 00:26:11;;;;;;;;;;;16.40;99.90;;;;;;5066548;28;19917;-66
2021/09/23 00:28:37;;;;;;;;;;;16.40;99.90;;;;;;5071207;28;19919;-66
2021/09/23 00:31:03;;;;;;;;;;;16.40;99.90;;;;;;5068590;28;19916;-66
2021/09/23 00:33:29;;;;;;;;;;;16.30;99.90;;;;;;5069093;28;20524;-67
2021/09/23 00:35:54;;;;;;;;;;;16.30;99.90;;;;;;5070896;28;19917;-66
2021/09/23 00:38:20;;;;;;;;;;;16.30;99.90;;;;;;5070486;28;20185;-66
2021/09/23 00:40:46;;;;;;;;;;;16.40;99.90;;;;;;5071767;28;19912;-66
2021/09/23 00:43:11;;;;;;;;;;;16.30;99.90;;;;;;5072386;28;19920;-67
2021/09/23 00:45:38;;;;;;;;;;;16.30;99.90;;;;;;5072368;28;19919;-66
2021/09/23 00:48:04;;;;;;;;;;;16.40;99.90;;;;;;5071851;28;20155;-66
2021/09/23 00:50:30;;;;;;;;;;;16.30;99.90;;;;;;5073528;28;19912;-67
2021/09/23 00:52:55;;;;;;;;;;;16.40;99.90;;;;;;5072076;28;19913;-66
2021/09/23 00:55:21;;;;;;;;;;;16.40;99.90;;;;;;5072877;28;19920;-67
2021/09/23 00:57:47;;;;;;;;;;;16.40;99.90;;;;;;5071867;28;19927;-66
2021/09/23 01:00:13;;;;;;;;;;;16.40;99.90;;;;;;5068992;28;20312;-67
2021/09/23 01:02:39;;;;;;;;;;;16.40;99.90;;;;;;5074185;28;19915;-66
2021/09/23 01:05:05;;;;;;;;;;;16.50;99.90;;;;;;5072961;28;19943;-67
2021/09/23 01:07:31;;;;;;;;;;;16.50;99.90;;;;;;5070084;28;19916;-67
2021/09/23 01:09:57;;;;;;;;;;;16.50;99.90;;;;;;5070564;28;19950;-66
2021/09/23 01:12:24;;;;;;;;;;;16.50;99.90;;;;;;5074438;28;20205;-66
2021/09/23 01:14:50;;;;;;;;;;;16.50;99.90;;;;;;5070892;28;20222;-67
2021/09/23 01:17:16;;;;;;;;;;;16.50;99.90;;;;;;5068634;28;19950;-67
2021/09/23 01:19:43;;;;;;;;;;;16.50;99.90;;;;;;5071617;28;20135;-67
2021/09/23 01:22:08;;;;;;;;;;;16.50;99.90;;;;;;5074073;28;19923;-67
2021/09/23 01:24:38;;;;;;;;;;;16.50;99.90;;;;;;5073228;28;19908;-66
2021/09/23 01:27:04;;;;;;;;;;;16.50;99.90;;;;;;5071774;28;20114;-66
2021/09/23 01:29:31;;;;;;;;;;;16.50;99.90;;;;;;5071292;28;19916;-67
2021/09/23 01:31:57;;;;;;;;;;;16.50;99.90;;;;;;5071573;28;20276;-67
2021/09/23 01:34:23;;;;;;;;;;;16.60;99.90;;;;;;5069848;28;19951;-66
2021/09/23 01:36:49;;;;;;;;;;;16.50;99.90;;;;;;5070968;28;19921;-67
2021/09/23 01:39:19;;;;;;;;;;;16.60;99.90;;;;;;5071640;28;19979;-65
2021/09/23 01:41:44;;;;;;;;;;;16.50;99.90;;;;;;5072679;28;19912;-66
2021/09/23 01:44:10;;;;;;;;;;;16.50;99.90;;;;;;5070206;28;20111;-66
2021/09/23 01:46:36;;;;;;;;;;;16.50;99.90;;;;;;5072254;28;20212;-67
2021/09/23 01:49:01;;;;;;;;;;;16.60;99.90;;;;;;5069927;28;20241;-67
2021/09/23 01:51:27;;;;;;;;;;;16.60;99.90;;;;;;5071139;28;19912;-66
2021/09/23 01:53:53;;;;;;;;;;;16.60;99.90;;;;;;5071132;28;20103;-67
2021/09/23 01:56:18;;;;;;;;;;;16.60;99.90;;;;;;5069178;28;19934;-67
2021/09/23 01:58:44;;;;;;;;;;;16.60;99.90;;;;;;5071273;28;19916;-66
2021/09/23 02:01:10;;;;;;;;;;;16.60;99.90;;;;;;5071425;28;20234;-67
2021/09/23 02:03:35;;;;;;;;;;;16.60;99.90;;;;;;5072871;28;19920;-66
2021/09/23 02:06:01;;;;;;;;;;;16.60;99.90;;;;;;5069656;28;19912;-67
2021/09/23 02:08:27;;;;;;;;;;;16.60;99.90;;;;;;5070744;28;19952;-66
2021/09/23 02:10:52;;;;;;;;;;;16.60;99.90;;;;;;5069942;28;19943;-66
2021/09/23 02:13:18;;;;;;;;;;;16.60;99.90;;;;;;5071632;28;19935;-67
2021/09/23 02:15:44;;;;;;;;;;;16.60;99.90;;;;;;5071046;28;19912;-67
2021/09/23 02:18:09;;;;;;;;;;;16.60;99.90;;;;;;5069097;28;20011;-66
2021/09/23 02:20:35;;;;;;;;;;;16.60;99.90;;;;;;5069562;28;19912;-67
2021/09/23 02:23:01;;;;;;;;;;;16.60;99.90;;;;;;5071945;28;19912;-66
2021/09/23 02:25:26;;;;;;;;;;;16.50;99.90;;;;;;5068501;28;20404;-66
2021/09/23 02:27:52;;;;;;;;;;;16.60;99.90;;;;;;5071247;28;20366;-66
2021/09/23 02:30:18;;;;;;;;;;;16.60;99.90;;;;;;5068342;28;19913;-66
2021/09/23 02:32:43;;;;;;;;;;;16.60;99.90;;;;;;5070063;28;19912;-67
2021/09/23 02:35:10;;;;;;;;;;;16.60;99.90;;;;;;5069156;28;19912;-67
2021/09/23 02:37:35;;;;;;;;;;;16.60;99.90;;;;;;5068798;28;20003;-66
2021/09/23 02:40:02;;;;;;;;;;;16.50;99.90;;;;;;5070005;28;19912;-66
2021/09/23 02:42:28;;;;;;;;;;;16.60;99.90;;;;;;5070152;28;19912;-66
2021/09/23 02:44:53;;;;;;;;;;;16.50;99.90;;;;;;5070287;28;20180;-66
2021/09/23 02:47:22;;;;;;;;;;;16.50;99.90;;;;;;5070897;28;20242;-67
2021/09/23 02:49:48;;;;;;;;;;;16.50;99.90;;;;;;5068899;28;20007;-66
2021/09/23 02:52:14;;;;;;;;;;;16.60;99.90;;;;;;5067852;28;20213;-66
2021/09/23 02:54:39;;;;;;;;;;;16.60;99.90;;;;;;5073151;28;20126;-67
2021/09/23 02:57:05;;;;;;;;;;;16.60;99.90;;;;;;5069394;28;19970;-67
2021/09/23 02:59:31;;;;;;;;;;;16.60;99.90;;;;;;5070706;28;19917;-67
2021/09/23 03:01:56;;;;;;;;;;;16.60;99.90;;;;;;5067911;28;19935;-67
2021/09/23 03:04:22;;;;;;;;;;;16.60;99.90;;;;;;5072471;28;20241;-67
2021/09/23 03:06:48;;;;;;;;;;;16.50;99.90;;;;;;5068531;28;19912;-66
2021/09/23 03:09:13;;;;;;;;;;;16.50;99.90;;;;;;5068866;28;19919;-66
2021/09/23 03:11:39;;;;;;;;;;;16.50;99.90;;;;;;5071834;28;20248;-66
2021/09/23 03:14:05;;;;;;;;;;;16.50;99.90;;;;;;5069916;28;19912;-67
2021/09/23 03:16:30;;;;;;;;;;;16.40;99.90;;;;;;5068552;28;20110;-66
2021/09/23 03:18:56;;;;;;;;;;;16.50;99.90;;;;;;5071559;28;20111;-66
2021/09/23 03:21:22;;;;;;;;;;;16.50;99.90;;;;;;5066689;28;19919;-67
2021/09/23 03:23:47;;;;;;;;;;;16.50;99.90;;;;;;5070648;28;19912;-67
2021/09/23 03:26:13;;;;;;;;;;;16.40;99.90;;;;;;5069123;28;19995;-66
2021/09/23 03:28:39;;;;;;;;;;;16.40;99.90;;;;;;5071076;28;19912;-67
2021/09/23 03:31:05;;;;;;;;;;;16.50;99.90;;;;;;5067721;28;19919;-67
2021/09/23 03:33:30;;;;;;;;;;;16.50;99.90;;;;;;5070475;28;19921;-67
2021/09/23 03:35:56;;;;;;;;;;;16.40;99.90;;;;;;5061927;28;20222;-67
2021/09/23 03:38:22;;;;;;;;;;;16.50;99.90;;;;;;5068920;28;19920;-67
2021/09/23 03:40:48;;;;;;;;;;;16.50;99.90;;;;;;5072599;28;19942;-67
2021/09/23 03:43:15;;;;;;;;;;;16.50;99.90;;;;;;5069240;28;19920;-66
2021/09/23 03:45:41;;;;;;;;;;;16.50;99.90;;;;;;5068816;28;20554;-67
2021/09/23 03:48:07;;;;;;;;;;;16.50;99.90;;;;;;5064273;28;20294;-66
2021/09/23 03:50:33;;;;;;;;;;;16.50;99.90;;;;;;5073239;28;20106;-67
2021/09/23 03:52:58;;;;;;;;;;;16.50;99.90;;;;;;5070987;28;20110;-67
2021/09/23 03:55:24;;;;;;;;;;;16.50;99.90;;;;;;5070082;28;19959;-68
2021/09/23 03:57:50;;;;;;;;;;;16.50;99.90;;;;;;5068427;28;19920;-69
2021/09/23 04:00:17;;;;;;;;;;;16.50;99.90;;;;;;5064234;28;20209;-86
2021/09/23 04:02:43;;;;;;;;;;;16.50;99.90;;;;;;5067363;28;20130;-73
2021/09/23 04:05:09;;;;;;;;;;;16.50;99.90;;;;;;5065645;28;19912;-75
2021/09/23 04:07:34;;;;;;;;;;;16.50;99.90;;;;;;5068505;28;19975;-73
2021/09/23 04:10:00;;;;;;;;;;;16.50;99.90;;;;;;5062580;28;20230;-73
2021/09/23 04:12:26;;;;;;;;;;;16.50;99.90;;;;;;5063951;28;20250;-73
2021/09/23 04:14:51;;;;;;;;;;;16.50;99.90;;;;;;5065326;28;19912;-74
2021/09/23 04:17:21;;;;;;;;;;;16.50;99.90;;;;;;5065542;28;20000;-74
2021/09/23 04:19:46;;;;;;;;;;;16.50;99.90;;;;;;5065889;28;19912;-73
2021/09/23 04:22:12;;;;;;;;;;;16.50;99.90;;;;;;5068813;28;19990;-76
2021/09/23 04:24:38;;;;;;;;;;;16.60;99.90;;;;;;5068090;28;19920;-74
2021/09/23 04:27:04;;;;;;;;;;;16.50;99.90;;;;;;5070990;28;19912;-75
2021/09/23 04:29:29;;;;;;;;;;;16.50;99.90;;;;;;5068848;28;19919;-74
2021/09/23 04:31:56;;;;;;;;;;;16.50;99.90;;;;;;5064496;28;19983;-74
2021/09/23 04:34:22;;;;;;;;;;;16.50;99.90;;;;;;5059217;28;20094;-74
2021/09/23 04:36:48;;;;;;;;;;;16.60;99.90;;;;;;5064520;28;20111;-73
2021/09/23 04:39:16;;;;;;;;;;;16.50;99.90;;;;;;5067920;28;20149;-74
2021/09/23 04:41:42;;;;;;;;;;;16.50;99.90;;;;;;5061718;28;20217;-74
2021/09/23 04:44:07;;;;;;;;;;;16.50;99.90;;;;;;5061191;28;19920;-73
2021/09/23 04:46:33;;;;;;;;;;;16.60;99.90;;;;;;5056054;28;19912;-74
2021/09/23 04:49:00;;;;;;;;;;;16.50;99.90;;;;;;5053553;28;20165;-76
2021/09/23 04:51:27;;;;;;;;;;;16.50;99.90;;;;;;5060118;28;20249;-74
2021/09/23 04:53:55;;;;;;;;;;;16.60;99.90;;;;;;5064023;28;19912;-74
2021/09/23 04:56:22;;;;;;;;;;;16.60;99.90;;;;;;5063890;28;19962;-74
2021/09/23 04:58:47;;;;;;;;;;;16.50;99.90;;;;;;5068663;28;19916;-74
2021/09/23 05:01:13;;;;;;;;;;;16.50;99.90;;;;;;5061580;28;19967;-73
2021/09/23 05:03:39;;;;;;;;;;;16.50;99.90;;;;;;5067582;28;19983;-73
2021/09/23 05:06:05;;;;;;;;;;;16.50;99.90;;;;;;5068805;28;20280;-74
2021/09/23 05:08:30;;;;;;;;;;;16.40;99.90;;;;;;5068052;28;19919;-74
2021/09/23 05:10:56;;;;;;;;;;;16.40;99.90;;;;;;5067294;28;19926;-74
2021/09/23 05:13:22;;;;;;;;;;;16.40;99.90;;;;;;5071347;28;19958;-73
2021/09/23 05:15:47;;;;;;;;;;;16.40;99.90;;;;;;5070669;28;19916;-73
2021/09/23 05:18:13;;;;;;;;;;;16.40;99.90;;;;;;5073076;28;20057;-74
2021/09/23 05:20:39;;;;;;;;;;;16.50;99.90;;;;;;5073942;28;20102;-74
2021/09/23 05:23:05;;;;;;;;;;;16.40;99.90;;;;;;5071584;28;19916;-74
2021/09/23 05:25:31;;;;;;;;;;;16.40;99.90;;;;;;5073203;28;20137;-73
2021/09/23 05:27:57;;;;;;;;;;;16.40;99.90;;;;;;5072451;28;19916;-74
2021/09/23 05:30:23;;;;;;;;;;;16.40;99.90;;;;;;5073883;28;19971;-74
2021/09/23 05:32:49;;;;;;;;;;;16.40;99.90;;;;;;5074203;28;20211;-74
2021/09/23 05:35:15;;;;;;;;;;;16.40;99.90;;;;;;5073735;28;20246;-75
2021/09/23 05:37:41;;;;;;;;;;;16.40;99.90;;;;;;5073057;28;19951;-74
2021/09/23 05:40:07;;;;;;;;;;;16.40;99.90;;;;;;5073855;28;19953;-74
2021/09/23 05:42:33;;;;;;;;;;;16.40;99.90;;;;;;5070809;28;20288;-74
2021/09/23 05:44:59;;;;;;;;;;;16.40;99.90;;;;;;5073832;28;19935;-73
2021/09/23 05:47:24;;;;;;;;;;;16.40;99.90;;;;;;5073575;28;19920;-74
2021/09/23 05:49:50;;;;;;;;;;;16.40;99.90;;;;;;5072943;28;19938;-75
2021/09/23 05:52:16;;;;;;;;;;;16.40;99.90;;;;;;5072852;28;20113;-75
2021/09/23 05:54:43;;;;;;;;;;;16.40;99.90;;;;;;5073077;28;19978;-74
2021/09/23 05:57:08;;;;;;;;;;;16.40;99.90;;;;;;5071792;28;20001;-75
2021/09/23 05:59:34;;;;;;;;;;;16.40;99.90;;;;;;5072530;28;19912;-75
2021/09/23 06:02:00;;;;;;;;;;;16.40;99.90;;;;;;5068223;28;19948;-75
2021/09/23 06:04:26;;;;;;;;;;;16.40;99.90;;;;;;5070052;28;19913;-74
2021/09/23 06:06:51;;;;;;;;;;;16.50;99.90;;;;;;5071370;28;20088;-74
2021/09/23 06:09:17;;;;;;;;;;;16.50;99.90;;;;;;5072465;28;19908;-73
2021/09/23 06:11:43;;;;;;;;;;;16.50;99.90;;;;;;5071852;28;19912;-74
2021/09/23 06:14:09;;;;;;;;;;;16.50;99.90;;;;;;5072035;28;19920;-74
2021/09/23 06:16:35;;;;;;;;;;;16.50;99.90;;;;;;5070527;28;20068;-73
2021/09/23 06:19:01;;;;;;;;;;;16.40;99.90;;;;;;5072100;28;19952;-74
2021/09/23 06:21:27;;;;;;;;;;;16.40;99.90;;;;;;5072975;28;20069;-74
2021/09/23 06:23:53;;;;;;;;;;;16.40;99.90;;;;;;5071992;28;19908;-75
2021/09/23 06:26:20;;;;;;;;;;;16.30;99.90;;;;;;5072367;28;20196;-74
2021/09/23 06:28:46;;;;;;;;;;;16.30;99.90;;;;;;5072846;28;20234;-75
2021/09/23 06:31:11;;;;;;;;;;;16.20;99.90;;;;;;5071817;28;20197;-74
2021/09/23 06:33:37;;;;;;;;;;;16.20;99.90;;;;;;5066400;28;19912;-74
2021/09/23 06:36:03;;;;;;;;;;;16.20;99.90;;;;;;5071180;28;19919;-75
2021/09/23 06:38:29;;;;;;;;;;;16.10;99.90;;;;;;5072678;28;20150;-74
2021/09/23 06:40:55;;;;;;;;;;;16.10;99.90;;;;;;5068564;28;20179;-75
2021/09/23 06:43:22;;;;;;;;;;;16.10;99.90;;;;;;5072721;28;19927;-75
2021/09/23 06:45:48;;;;;;;;;;;16.10;99.90;;;;;;5071549;28;20010;-73
2021/09/23 06:48:14;;;;;;;;;;;16.10;99.90;;;;;;5072612;28;19947;-76
2021/09/23 06:50:40;;;;;;;;;;;16.10;99.90;;;;;;5062549;28;20007;-74
2021/09/23 06:53:05;;;;;;;;;;;16.10;99.90;;;;;;5067347;28;19912;-75
2021/09/23 06:55:31;;;;;;;;;;;16.10;99.90;;;;;;5071542;28;19912;-74
2021/09/23 06:57:57;;;;;;;;;;;16.10;99.90;;;;;;5072469;28;19916;-74
2021/09/23 07:00:23;;;;;;;;;;;16.10;99.90;;;;;;5072747;28;19995;-74
2021/09/23 07:02:48;;;;;;;;;;;16.10;99.90;;;;;;5071030;28;20336;-74
2021/09/23 07:05:14;;;;;;;;;;;16.10;99.90;;;;;;5070668;28;20230;-72
2021/09/23 07:07:40;;;;;;;;;;;16.00;99.90;;;;;;5071490;28;20173;-72
2021/09/23 07:10:06;;;;;;;;;;;16.00;99.90;;;;;;5070730;28;20175;-72
2021/09/23 07:12:32;;;;;;;;;;;15.90;99.90;;;;;;5068135;28;20168;-72
2021/09/23 07:14:58;;;;;;;;;;;15.90;99.90;;;;;;5070341;28;19913;-73
2021/09/23 07:17:23;;;;;;;;;;;15.90;99.90;;;;;;5071757;28;20298;-72
2021/09/23 07:19:49;;;;;;;;;;;15.90;99.90;;;;;;5071566;28;20245;-72
2021/09/23 07:22:15;;;;;;;;;;;15.80;99.90;;;;;;5070415;28;20102;-72
2021/09/23 07:24:41;;;;;;;;;;;15.90;99.90;;;;;;5069637;28;20076;-72
2021/09/23 07:27:07;;;;;;;;;;;15.80;99.90;;;;;;5071438;28;20088;-72
2021/09/23 07:29:33;;;;;;;;;;;15.90;99.90;;;;;;5072613;28;20003;-72
2021/09/23 07:31:59;;;;;;;;;;;15.90;99.90;;;;;;5067836;28;19979;-71
2021/09/23 07:34:25;;;;;;;;;;;15.90;99.90;;;;;;5069862;28;19973;-72
2021/09/23 07:36:50;;;;;;;;;;;16.00;99.90;;;;;;5071785;28;20257;-72
2021/09/23 07:39:16;;;;;;;;;;;16.00;99.90;;;;;;5072106;28;19989;-72
2021/09/23 07:41:46;;;;;;;;;;;16.00;99.90;;;;;;5071422;28;19908;-72
2021/09/23 07:44:14;;;;;;;;;;;16.00;99.90;;;;;;5071669;28;19924;-71
2021/09/23 07:46:39;;;;;;;;;;;16.00;99.90;;;;;;5071936;28;19916;-71
2021/09/23 07:49:05;;;;;;;;;;;16.00;99.90;;;;;;5072077;28;20213;-72
2021/09/23 07:51:31;;;;;;;;;;;16.00;99.90;;;;;;5070494;28;20168;-72
2021/09/23 07:53:57;;;;;;;;;;;16.10;99.90;;;;;;5072174;28;19913;-73
2021/09/23 07:56:23;;;;;;;;;;;16.00;99.90;;;;;;5071329;28;20206;-72
2021/09/23 07:58:49;;;;;;;;;;;16.10;99.90;;;;;;5071300;28;20163;-72
2021/09/23 08:01:15;;;;;;;;;;;16.10;99.90;;;;;;5068307;28;19958;-72
2021/09/23 08:03:41;;;;;;;;;;;16.10;99.90;;;;;;5071454;28;19919;-72
2021/09/23 08:06:06;;;;;;;;;;;16.10;99.90;;;;;;5071844;28;19916;-72
2021/09/23 08:08:33;;;;;;;;;;;16.10;99.90;;;;;;5071292;28;19912;-72
2021/09/23 08:11:00;;;;;;;;;;;16.10;99.90;;;;;;5071621;28;20261;-71
2021/09/23 08:13:26;;;;;;;;;;;16.20;99.90;;;;;;5071201;28;20231;-72
2021/09/23 08:15:51;;;;;;;;;;;16.20;99.90;;;;;;5071747;28;19908;-73
2021/09/23 08:18:19;;;;;;;;;;;16.20;99.90;;;;;;5069347;28;19920;-72
2021/09/23 08:20:45;;;;;;;;;;;16.20;99.90;;;;;;5070514;28;19916;-72
2021/09/23 08:23:11;;;;;;;;;;;16.20;99.90;;;;;;5070892;28;19912;-72
2021/09/23 08:25:37;;;;;;;;;;;16.20;99.90;;;;;;5073969;28;19990;-72
2021/09/23 08:28:04;;;;;;;;;;;16.20;99.90;;;;;;5075524;28;19908;-72
2021/09/23 08:30:30;;;;;;;;;;;16.20;99.90;;;;;;5074313;28;19922;-73
2021/09/23 08:32:56;;;;;;;;;;;16.20;99.90;;;;;;5071891;28;19939;-72
2021/09/23 08:35:23;;;;;;;;;;;16.20;99.90;;;;;;5075085;28;19984;-71
2021/09/23 08:37:49;;;;;;;;;;;16.20;99.90;;;;;;5074235;28;19981;-72
2021/09/23 08:40:14;;;;;;;;;;;16.20;99.90;;;;;;5075157;28;19908;-72
2021/09/23 08:42:41;;;;;;;;;;;16.30;99.90;;;;;;5074625;28;19951;-71
2021/09/23 08:45:07;;;;;;;;;;;16.20;99.90;;;;;;5074896;28;19912;-72
2021/09/23 08:47:34;;;;;;;;;;;16.10;99.90;;;;;;5073047;28;19935;-73
2021/09/23 08:50:11;;;;;;;;;;;16.00;99.90;;;;;;5073895;28;19923;-74
2021/09/23 08:52:38;;;;;;;;;;;15.90;99.90;;;;;;5074762;28;20294;-73
2021/09/23 08:55:04;;;;;;;;;;;15.70;99.90;;;;;;5074473;28;19908;-72
2021/09/23 08:57:30;;;;;;;;;;;15.60;99.90;;;;;;5074508;28;19951;-72
2021/09/23 08:59:56;;;;;;;;;;;15.60;99.90;;;;;;5074104;28;19908;-73
2021/09/23 09:02:27;;;;;;;;;;;15.50;99.90;;;;;;5073607;28;19916;-72
2021/09/23 09:04:54;;;;;;;;;;;15.20;99.90;;;;;;5066635;28;20264;-73
2021/09/23 09:07:30;;;;;;;;;;;15.10;99.90;;;;;;5072977;28;19936;-72
2021/09/23 09:10:00;;;;;;;;;;;15.00;99.90;;;;;;5074082;28;19908;-71
2021/09/23 09:12:27;;;;;;;;;;;14.80;99.90;;;;;;5074236;28;20169;-72
2021/09/23 09:14:53;;;;;;;;;;;14.80;99.90;;;;;;5073676;28;19930;-72
2021/09/23 09:17:19;;;;;;;;;;;14.70;99.90;;;;;;5074780;28;19922;-72
2021/09/23 09:19:47;;;;;;;;;;;14.70;99.90;;;;;;5071262;28;20262;-72
2021/09/23 09:22:14;;;;;;;;;;;14.70;99.90;;;;;;5072306;28;19912;-72
2021/09/23 09:24:56;;;;;;;;;;;14.60;99.90;;;;;;5073683;28;19916;-72
2021/09/23 09:27:38;;;;;;;;;;;14.50;99.90;;;;;;5073291;28;19908;-72
2021/09/23 09:30:09;;;;;;;;;;;14.40;99.90;;;;;;5072410;28;19912;-72
2021/09/23 09:32:35;;;;;;;;;;;14.40;99.90;;;;;;5074195;28;20157;-72
2021/09/23 09:35:01;;;;;;;;;;;14.40;99.90;;;;;;5071286;28;20393;-72
2021/09/23 09:37:30;;;;;;;;;;;14.40;99.90;;;;;;5073293;28;19916;-72
2021/09/23 09:39:56;;;;;;;;;;;14.50;99.90;;;;;;5070639;28;19912;-72
2021/09/23 09:42:22;;;;;;;;;;;14.50;99.90;;;;;;5072563;28;20249;-73
2021/09/23 09:44:52;;;;;;;;;;;14.50;99.90;;;;;;5073505;28;19935;-72
2021/09/23 09:47:25;;;;;;;;;;;14.50;99.90;;;;;;5072188;28;20123;-72
2021/09/23 09:49:51;;;;;;;;;;;14.50;99.90;;;;;;5073926;28;19912;-72
2021/09/23 09:52:27;;;;;;;;;;;14.60;99.90;;;;;;5073418;28;20203;-73
2021/09/23 09:55:06;;;;;;;;;;;14.50;99.90;;;;;;5071086;28;19908;-73
2021/09/23 09:57:32;;;;;;;;;;;14.50;99.90;;;;;;5072962;28;20217;-72
2021/09/23 09:59:59;;;;;;;;;;;14.50;99.90;;;;;;5072910;28;19909;-72
2021/09/23 10:02:28;;;;;;;;;;;14.50;99.90;;;;;;5071132;28;19912;-72
2021/09/23 10:04:58;;;;;;;;;;;14.50;99.90;;;;;;5072555;28;19912;-71
2021/09/23 10:07:26;;;;;;;;;;;14.50;99.90;;;;;;5073465;28;19946;-71
2021/09/23 10:09:53;;;;;;;;;;;14.50;99.90;;;;;;5073748;28;19943;-72
2021/09/23 10:12:20;;;;;;;;;;;14.50;99.90;;;;;;5072539;28;20083;-71
2021/09/23 10:14:46;;;;;;;;;;;14.50;99.90;;;;;;5069525;28;19912;-71
2021/09/23 10:17:13;;;;;;;;;;;14.50;99.90;;;;;;5072842;28;19997;-71
2021/09/23 10:19:40;;;;;;;;;;;14.60;99.90;;;;;;5073107;28;20130;-72
2021/09/23 10:22:06;;;;;;;;;;;14.70;99.90;;;;;;5067555;28;19966;-71
2021/09/23 10:24:32;;;;;;;;;;;14.80;99.90;;;;;;5071433;28;19919;-72
2021/09/23 10:26:58;;;;;;;;;;;14.90;99.90;;;;;;5072021;28;20102;-72
2021/09/23 10:29:25;;;;;;;;;;;15.10;99.90;;;;;;5072626;28;19955;-72
2021/09/23 10:31:58;;;;;;;;;;;15.30;99.90;;;;;;5072123;28;19936;-71
2021/09/23 10:34:24;;;;;;;;;;;15.50;99.90;;;;;;5067141;28;19916;-71
2021/09/23 10:36:50;;;;;;;;;;;15.80;99.90;;;;;;5071914;28;19916;-72
2021/09/23 10:39:16;;;;;;;;;;;16.00;99.90;;;;;;5072135;28;19966;-72
2021/09/23 10:41:44;;;;;;;;;;;16.20;99.90;;;;;;5072529;28;19979;-71
2021/09/23 10:44:10;;;;;;;;;;;16.40;99.90;;;;;;5070964;28;20223;-71
2021/09/23 10:46:37;;;;;;;;;;;16.50;99.90;;;;;;5071356;28;19912;-71
2021/09/23 10:49:06;;;;;;;;;;;16.70;99.90;;;;;;5069788;28;19934;-71
2021/09/23 10:51:35;;;;;;;;;;;16.90;99.90;;;;;;5072480;28;19909;-71
2021/09/23 10:54:04;;;;;;;;;;;17.00;99.90;;;;;;5072228;28;20197;-71
2021/09/23 10:56:29;;;;;;;;;;;17.10;99.90;;;;;;5070973;28;19919;-71
2021/09/23 10:58:56;;;;;;;;;;;17.30;99.90;;;;;;5072475;28;19912;-71
2021/09/23 11:01:26;;;;;;;;;;;17.40;99.90;;;;;;5071439;28;19912;-70
2021/09/23 11:03:53;;;;;;;;;;;17.50;99.90;;;;;;5070700;28;19912;-70
2021/09/23 11:06:19;;;;;;;;;;;17.80;99.90;;;;;;5071236;28;19971;-68
2021/09/23 11:08:46;;;;;;;;;;;18.20;99.90;;;;;;5072609;28;20415;-69
2021/09/23 11:11:13;;;;;;;;;;;18.30;99.90;;;;;;5072755;28;20252;-69
2021/09/23 11:13:39;;;;;;;;;;;18.20;99.90;;;;;;5070772;28;19968;-70
2021/09/23 11:16:07;;;;;;;;;;;17.90;99.90;;;;;;5071493;28;19908;-71
2021/09/23 11:18:33;;;;;;;;;;;17.60;99.90;;;;;;5072411;28;20189;-71
2021/09/23 11:20:59;;;;;;;;;;;17.40;99.90;;;;;;5071187;28;19969;-71
2021/09/23 11:23:26;;;;;;;;;;;17.10;99.90;;;;;;5070584;28;20191;-71
2021/09/23 11:25:52;;;;;;;;;;;17.10;99.90;;;;;;5072018;28;19908;-71
2021/09/23 11:28:18;;;;;;;;;;;17.00;99.90;;;;;;5072257;28;19954;-70
2021/09/23 11:30:44;;;;;;;;;;;16.90;99.90;;;;;;5072415;28;19931;-70
2021/09/23 11:33:11;;;;;;;;;;;16.80;99.90;;;;;;5069702;28;20230;-70
2021/09/23 11:35:41;;;;;;;;;;;16.60;99.90;;;;;;5072178;28;19908;-70
2021/09/23 11:38:07;;;;;;;;;;;16.50;99.90;;;;;;5070959;28;20158;-70
2021/09/23 11:40:34;;;;;;;;;;;16.40;99.90;;;;;;5070643;28;19940;-70
2021/09/23 11:43:00;;;;;;;;;;;16.30;99.90;;;;;;5070424;28;19966;-70
2021/09/23 11:45:27;;;;;;;;;;;16.30;99.90;;;;;;5072125;28;19943;-71
2021/09/23 11:47:54;;;;;;;;;;;16.40;99.90;;;;;;5070260;28;19923;-71
2021/09/23 11:50:24;;;;;;;;;;;16.40;99.90;;;;;;5072118;28;20320;-71
2021/09/23 11:52:51;;;;;;;;;;;16.50;99.90;;;;;;5070961;28;20214;-71
2021/09/23 11:55:18;;;;;;;;;;;16.70;99.90;;;;;;5071267;28;19928;-72
2021/09/23 11:57:44;;;;;;;;;;;16.80;99.90;;;;;;5070454;28;20156;-71
2021/09/23 12:00:10;;;;;;;;;;;16.90;99.90;;;;;;5075323;28;19918;-71
2021/09/23 12:02:36;;;;;;;;;;;17.00;99.90;;;;;;5073803;28;20126;-71
2021/09/23 12:05:02;;;;;;;;;;;17.00;99.90;;;;;;5074200;28;20241;-71
2021/09/23 12:07:31;;;;;;;;;;;16.90;99.90;;;;;;5075662;28;19912;-71
2021/09/23 12:10:00;;;;;;;;;;;16.70;99.90;;;;;;5074381;28;19908;-71
2021/09/23 12:12:26;;;;;;;;;;;16.50;99.90;;;;;;5066585;28;19943;-71
2021/09/23 12:14:52;;;;;;;;;;;16.50;99.90;;;;;;5074724;28;19958;-71
2021/09/23 12:17:19;;;;;;;;;;;16.40;99.90;;;;;;5074904;28;19916;-71
2021/09/23 12:19:54;;;;;;;;;;;16.40;99.90;;;;;;5070363;28;19916;-70
2021/09/23 12:22:33;;;;;;;;;;;16.40;99.90;;;;;;5073101;28;19913;-70
2021/09/23 12:24:59;;;;;;;;;;;16.40;99.90;;;;;;5075112;28;20105;-71
2021/09/23 12:27:27;;;;;;;;;;;16.40;99.90;;;;;;5075112;28;19935;-70
2021/09/23 12:29:56;;;;;;;;;;;16.50;99.90;;;;;;5073633;28;19915;-71
2021/09/23 12:32:29;;;;;;;;;;;16.50;99.90;;;;;;5073704;28;19995;-71
2021/09/23 12:34:55;;;;;;;;;;;16.40;99.90;;;;;;5070438;28;19919;-70
2021/09/23 12:37:22;;;;;;;;;;;16.40;99.90;;;;;;5074986;28;19975;-70
2021/09/23 12:39:48;;;;;;;;;;;16.50;99.90;;;;;;5074574;28;20187;-71
2021/09/23 12:42:13;;;;;;;;;;;16.50;99.90;;;;;;5075063;28;19935;-71
2021/09/23 12:44:41;;;;;;;;;;;16.50;99.90;;;;;;5075031;28;19980;-70
2021/09/23 12:47:12;;;;;;;;;;;16.70;99.90;;;;;;5073708;28;19944;-70
2021/09/23 12:49:40;;;;;;;;;;;16.70;99.90;;;;;;5070264;28;19908;-71
2021/09/23 12:52:13;;;;;;;;;;;16.60;99.90;;;;;;5073118;28;20225;-72
2021/09/23 12:54:49;;;;;;;;;;;16.60;99.90;;;;;;5071351;28;19916;-71
2021/09/23 12:57:21;;;;;;;;;;;16.50;99.90;;;;;;5074884;28;19920;-70
2021/09/23 12:59:47;;;;;;;;;;;16.50;99.90;;;;;;5074854;28;19911;-71
2021/09/23 13:02:14;;;;;;;;;;;16.40;99.90;;;;;;5072582;28;20179;-71
2021/09/23 13:04:40;;;;;;;;;;;16.30;99.90;;;;;;5071765;28;19916;-71
2021/09/23 13:07:19;;;;;;;;;;;15.90;99.90;;;;;;5073878;28;20428;-71
2021/09/23 13:10:03;;;;;;;;;;;15.40;99.90;;;;;;5074239;28;19908;-71
2021/09/23 13:12:48;;;;;;;;;;;15.00;99.90;;;;;;5074000;28;19931;-71
2021/09/23 13:15:14;;;;;;;;;;;15.10;99.90;;;;;;5074737;28;20140;-71
2021/09/23 13:17:40;;;;;;;;;;;15.00;99.90;;;;;;5074158;28;19924;-72
2021/09/23 13:20:06;;;;;;;;;;;15.10;99.90;;;;;;5071979;28;20005;-71
2021/09/23 13:22:32;;;;;;;;;;;15.20;99.90;;;;;;5073062;28;19930;-72
2021/09/23 13:24:58;;;;;;;;;;;15.40;99.90;;;;;;5073572;28;19916;-70
2021/09/23 13:27:24;;;;;;;;;;;15.50;99.90;;;;;;5072540;28;19912;-71
2021/09/23 13:29:50;;;;;;;;;;;15.50;99.90;;;;;;5074545;28;19908;-71
2021/09/23 13:32:15;;;;;;;;;;;15.50;99.90;;;;;;5074195;28;20072;-71
2021/09/23 13:34:41;;;;;;;;;;;15.40;99.90;;;;;;5074764;28;19979;-73
2021/09/23 13:37:07;;;;;;;;;;;15.40;99.90;;;;;;5070027;28;19920;-71
2021/09/23 13:39:32;;;;;;;;;;;15.30;99.90;;;;;;5072443;28;19920;-73
2021/09/23 13:41:58;;;;;;;;;;;15.20;99.90;;;;;;5074041;28;19915;-71
2021/09/23 13:44:24;;;;;;;;;;;15.20;99.90;;;;;;5072593;28;20230;-71
2021/09/23 13:46:49;;;;;;;;;;;15.10;99.90;;;;;;5073505;28;19977;-71
2021/09/23 13:49:15;;;;;;;;;;;15.10;99.90;;;;;;5074090;28;20186;-71
2021/09/23 13:51:43;;;;;;;;;;;15.30;99.90;;;;;;5073396;28;19908;-70
2021/09/23 13:54:09;;;;;;;;;;;15.50;99.90;;;;;;5071964;28;19930;-70
2021/09/23 13:56:35;;;;;;;;;;;15.60;99.90;;;;;;5072077;28;19983;-70
2021/09/23 13:59:01;;;;;;;;;;;15.50;99.90;;;;;;5072548;28;19908;-70
2021/09/23 14:01:26;;;;;;;;;;;15.40;99.90;;;;;;5071903;28;19912;-70
2021/09/23 14:03:52;;;;;;;;;;;15.20;99.90;;;;;;5073808;28;19912;-70
2021/09/23 14:06:18;;;;;;;;;;;15.10;99.90;;;;;;5073396;28;19908;-70
2021/09/23 14:08:44;;;;;;;;;;;15.00;99.90;;;;;;5073565;28;19935;-69
2021/09/23 14:11:10;;;;;;;;;;;15.00;99.90;;;;;;5067775;28;19976;-70
2021/09/23 14:13:35;;;;;;;;;;;15.10;99.90;;;;;;5071473;28;20195;-70